sensor_id;sensor_type;location;lat;lon;timestamp;temperature;humidity
15991;DHT22;8100;50.994;4.538;2023-02-28T00:01:48;-0.90;1.00
15991;DHT22;8100;50.994;4.538;2023-02-28T00:04:35;-0.80;1.00
15991;DHT22;8100;50.994;4.538;2023-02-28T00:07:23;-0.90;1.00
15991;DHT22;8100;50.994;4.538;2023-02-28T00:10:13;-1.00;1.00
15991;DHT22;8100;50.994;4.538;2023-02-28T00:13:03;-1.00;1.00
15991;DHT22;8100;50.994;4.538;2023-02-28T00:15:59;-0.90;1.00
15991;DHT22;8100;50.994;4.538;2023-02-28T00:18:47;-0.90;1.00
15991;DHT22;8100;50.994;4.538;2023-02-28T00:21:34;-0.90;1.00
15991;DHT22;8100;50.994;4.538;2023-02-28T00:24:21;-1.00;1.00
15991;DHT22;8100;50.994;4.538;2023-02-28T00:27:10;-1.00;1.00
15991;DHT22;8100;50.994;4.538;2023-02-28T00:29:57;-1.00;1.00
15991;DHT22;8100;50.994;4.538;2023-02-28T00:32:44;-0.90;1.00
15991;DHT22;8100;50.994;4.538;2023-02-28T00:35:31;-1.00;1.00
15991;DHT22;8100;50.994;4.538;2023-02-28T00:38:19;-1.10;1.00
15991;DHT22;8100;50.994;4.538;2023-02-28T00:41:06;-1.20;1.00
15991;DHT22;8100;50.994;4.538;2023-02-28T00:43:55;-1.20;1.00
15991;DHT22;8100;50.994;4.538;2023-02-28T00:46:42;-1.30;1.00
15991;DHT22;8100;50.994;4.538;2023-02-28T00:49:30;-1.20;1.00
15991;DHT22;8100;50.994;4.538;2023-02-28T00:52:17;-1.30;1.00
15991;DHT22;8100;50.994;4.538;2023-02-28T00:55:04;-1.30;1.00
15991;DHT22;8100;50.994;4.538;2023-02-28T00:57:52;-1.30;1.00
15991;DHT22;8100;50.994;4.538;2023-02-28T01:00:40;-1.40;1.00
15991;DHT22;8100;50.994;4.538;2023-02-28T01:03:27;-1.40;1.00
15991;DHT22;8100;50.994;4.538;2023-02-28T01:06:15;-1.40;1.00
15991;DHT22;8100;50.994;4.538;2023-02-28T01:09:03;-1.50;1.00
15991;DHT22;8100;50.994;4.538;2023-02-28T01:11:51;-1.50;1.00
15991;DHT22;8100;50.994;4.538;2023-02-28T01:14:38;-1.50;1.00
15991;DHT22;8100;50.994;4.538;2023-02-28T01:17:27;-1.50;1.00
15991;DHT22;8100;50.994;4.538;2023-02-28T01:20:14;-1.50;1.00
15991;DHT22;8100;50.994;4.538;2023-02-28T01:23:01;-1.50;1.00
15991;DHT22;8100;50.994;4.538;2023-02-28T01:25:48;-1.50;1.00
15991;DHT22;8100;50.994;4.538;2023-02-28T01:28:36;-1.50;1.00
15991;DHT22;8100;50.994;4.538;2023-02-28T01:31:23;-1.50;1.00
15991;DHT22;8100;50.994;4.538;2023-02-28T01:34:12;-1.60;1.00
15991;DHT22;8100;50.994;4.538;2023-02-28T01:36:59;-1.60;1.00
15991;DHT22;8100;50.994;4.538;2023-02-28T01:39:46;-1.60;1.00
15991;DHT22;8100;50.994;4.538;2023-02-28T01:42:34;-1.60;1.00
15991;DHT22;8100;50.994;4.538;2023-02-28T01:45:23;-1.70;1.00
15991;DHT22;8100;50.994;4.538;2023-02-28T01:48:12;-1.70;1.00
15991;DHT22;8100;50.994;4.538;2023-02-28T01:51:05;-1.80;1.00
15991;DHT22;8100;50.994;4.538;2023-02-28T01:53:56;-1.80;13.70
15991;DHT22;8100;50.994;4.538;2023-02-28T01:56:48;-1.80;99.90
15991;DHT22;8100;50.994;4.538;2023-02-28T01:59:38;-1.70;99.90
15991;DHT22;8100;50.994;4.538;2023-02-28T02:02:31;-1.70;99.90
15991;DHT22;8100;50.994;4.538;2023-02-28T02:05:20;-1.60;99.90
15991;DHT22;8100;50.994;4.538;2023-02-28T02:08:11;-1.70;55.50
15991;DHT22;8100;50.994;4.538;2023-02-28T02:11:00;-1.70;76.00
15991;DHT22;8100;50.994;4.538;2023-02-28T02:14:07;-1.70;89.60
15991;DHT22;8100;50.994;4.538;2023-02-28T02:17:07;-1.70;99.90
15991;DHT22;8100;50.994;4.538;2023-02-28T02:20:24;-1.80;99.90
15991;DHT22;8100;50.994;4.538;2023-02-28T02:23:40;-1.90;40.10
15991;DHT22;8100;50.994;4.538;2023-02-28T02:26:55;-1.90;99.80
15991;DHT22;8100;50.994;4.538;2023-02-28T02:30:12;-2.00;99.90
15991;DHT22;8100;50.994;4.538;2023-02-28T02:36:36;-1.90;99.90
15991;DHT22;8100;50.994;4.538;2023-02-28T02:39:29;-1.90;99.90
15991;DHT22;8100;50.994;4.538;2023-02-28T02:42:22;-1.90;1.00
15991;DHT22;8100;50.994;4.538;2023-02-28T02:45:15;-1.80;99.90
15991;DHT22;8100;50.994;4.538;2023-02-28T02:48:07;-1.90;99.90
15991;DHT22;8100;50.994;4.538;2023-02-28T02:50:58;-1.90;99.90
15991;DHT22;8100;50.994;4.538;2023-02-28T02:53:50;-1.90;99.90
15991;DHT22;8100;50.994;4.538;2023-02-28T02:56:39;-2.00;99.90
15991;DHT22;8100;50.994;4.538;2023-02-28T02:59:30;-2.00;1.00
15991;DHT22;8100;50.994;4.538;2023-02-28T03:02:20;-2.00;99.90
15991;DHT22;8100;50.994;4.538;2023-02-28T03:05:12;-2.00;99.90
15991;DHT22;8100;50.994;4.538;2023-02-28T03:08:03;-2.00;1.00
15991;DHT22;8100;50.994;4.538;2023-02-28T03:10:55;-2.00;1.00
15991;DHT22;8100;50.994;4.538;2023-02-28T03:14:15;-2.00;1.00
15991;DHT22;8100;50.994;4.538;2023-02-28T03:17:24;-2.00;99.90
15991;DHT22;8100;50.994;4.538;2023-02-28T03:20:18;-2.10;1.00
15991;DHT22;8100;50.994;4.538;2023-02-28T03:23:17;-2.10;1.00
15991;DHT22;8100;50.994;4.538;2023-02-28T03:26:13;-2.20;1.00
15991;DHT22;8100;50.994;4.538;2023-02-28T03:29:06;-2.20;1.00
15991;DHT22;8100;50.994;4.538;2023-02-28T03:32:02;-2.30;1.00
15991;DHT22;8100;50.994;4.538;2023-02-28T03:34:58;-2.30;1.00
15991;DHT22;8100;50.994;4.538;2023-02-28T03:37:52;-2.30;1.00
15991;DHT22;8100;50.994;4.538;2023-02-28T03:40:44;-2.40;1.00
15991;DHT22;8100;50.994;4.538;2023-02-28T03:43:36;-2.40;99.90
15991;DHT22;8100;50.994;4.538;2023-02-28T03:46:28;-2.30;99.90
15991;DHT22;8100;50.994;4.538;2023-02-28T03:49:18;-2.30;99.90
15991;DHT22;8100;50.994;4.538;2023-02-28T03:52:08;-2.30;99.90
15991;DHT22;8100;50.994;4.538;2023-02-28T03:54:58;-2.30;99.90
15991;DHT22;8100;50.994;4.538;2023-02-28T03:57:56;-2.20;99.90
15991;DHT22;8100;50.994;4.538;2023-02-28T04:00:48;-2.30;1.00
15991;DHT22;8100;50.994;4.538;2023-02-28T04:03:38;-2.40;91.40
15991;DHT22;8100;50.994;4.538;2023-02-28T04:06:25;-2.40;1.00
15991;DHT22;8100;50.994;4.538;2023-02-28T04:09:14;-2.60;1.00
15991;DHT22;8100;50.994;4.538;2023-02-28T04:12:02;-2.60;1.00
15991;DHT22;8100;50.994;4.538;2023-02-28T04:14:49;-2.60;99.90
15991;DHT22;8100;50.994;4.538;2023-02-28T04:17:38;-2.60;1.00
15991;DHT22;8100;50.994;4.538;2023-02-28T04:20:25;-2.60;99.90
15991;DHT22;8100;50.994;4.538;2023-02-28T04:23:12;-2.70;99.90
15991;DHT22;8100;50.994;4.538;2023-02-28T04:25:59;-2.70;1.00
15991;DHT22;8100;50.994;4.538;2023-02-28T04:28:46;-2.80;1.00
15991;DHT22;8100;50.994;4.538;2023-02-28T04:31:34;-2.70;1.00
15991;DHT22;8100;50.994;4.538;2023-02-28T04:34:23;-2.70;1.00
15991;DHT22;8100;50.994;4.538;2023-02-28T04:37:10;-2.70;1.00
15991;DHT22;8100;50.994;4.538;2023-02-28T04:39:58;-2.50;1.00
15991;DHT22;8100;50.994;4.538;2023-02-28T04:42:45;-2.40;1.00
15991;DHT22;8100;50.994;4.538;2023-02-28T04:45:32;-2.20;1.00
15991;DHT22;8100;50.994;4.538;2023-02-28T04:48:20;-2.00;1.00
15991;DHT22;8100;50.994;4.538;2023-02-28T04:51:10;-1.90;99.90
15991;DHT22;8100;50.994;4.538;2023-02-28T04:53:58;-1.80;99.90
15991;DHT22;8100;50.994;4.538;2023-02-28T04:56:45;-1.70;99.90
15991;DHT22;8100;50.994;4.538;2023-02-28T04:59:34;-1.60;99.90
15991;DHT22;8100;50.994;4.538;2023-02-28T05:02:21;-1.60;99.90
15991;DHT22;8100;50.994;4.538;2023-02-28T05:05:09;-1.50;99.90
15991;DHT22;8100;50.994;4.538;2023-02-28T05:07:59;-1.50;99.90
15991;DHT22;8100;50.994;4.538;2023-02-28T05:10:46;-1.50;99.90
15991;DHT22;8100;50.994;4.538;2023-02-28T05:13:33;-1.40;99.90
15991;DHT22;8100;50.994;4.538;2023-02-28T05:16:21;-1.40;99.90
15991;DHT22;8100;50.994;4.538;2023-02-28T05:19:08;-1.30;99.90
15991;DHT22;8100;50.994;4.538;2023-02-28T05:21:56;-1.30;99.90
15991;DHT22;8100;50.994;4.538;2023-02-28T05:24:44;-1.20;99.90
15991;DHT22;8100;50.994;4.538;2023-02-28T05:27:32;-1.20;99.90
15991;DHT22;8100;50.994;4.538;2023-02-28T05:30:20;-1.20;99.90
15991;DHT22;8100;50.994;4.538;2023-02-28T05:33:11;-1.20;99.90
15991;DHT22;8100;50.994;4.538;2023-02-28T05:35:58;-1.10;99.90
15991;DHT22;8100;50.994;4.538;2023-02-28T05:38:47;-1.20;99.90
15991;DHT22;8100;50.994;4.538;2023-02-28T05:41:36;-1.20;99.90
15991;DHT22;8100;50.994;4.538;2023-02-28T05:44:23;-1.20;99.90
15991;DHT22;8100;50.994;4.538;2023-02-28T05:47:10;-1.10;99.90
15991;DHT22;8100;50.994;4.538;2023-02-28T05:50:01;-1.20;99.90
15991;DHT22;8100;50.994;4.538;2023-02-28T05:52:49;-1.20;99.90
15991;DHT22;8100;50.994;4.538;2023-02-28T05:55:36;-1.20;99.90
15991;DHT22;8100;50.994;4.538;2023-02-28T05:58:25;-1.10;99.90
15991;DHT22;8100;50.994;4.538;2023-02-28T06:01:22;-1.10;99.90
15991;DHT22;8100;50.994;4.538;2023-02-28T06:04:10;-1.10;99.90
15991;DHT22;8100;50.994;4.538;2023-02-28T06:06:59;-1.00;99.90
15991;DHT22;8100;50.994;4.538;2023-02-28T06:09:47;-1.00;99.90
15991;DHT22;8100;50.994;4.538;2023-02-28T06:12:34;-1.00;99.90
15991;DHT22;8100;50.994;4.538;2023-02-28T06:15:23;-1.00;99.90
15991;DHT22;8100;50.994;4.538;2023-02-28T06:18:10;-0.90;99.90
15991;DHT22;8100;50.994;4.538;2023-02-28T06:20:57;-0.90;99.90
15991;DHT22;8100;50.994;4.538;2023-02-28T06:23:44;-0.90;99.90
15991;DHT22;8100;50.994;4.538;2023-02-28T06:26:32;-0.80;99.90
15991;DHT22;8100;50.994;4.538;2023-02-28T06:29:19;-0.80;99.90
15991;DHT22;8100;50.994;4.538;2023-02-28T06:32:08;-0.80;99.90
15991;DHT22;8100;50.994;4.538;2023-02-28T06:34:55;-0.80;99.90
15991;DHT22;8100;50.994;4.538;2023-02-28T06:37:43;-0.80;99.90
15991;DHT22;8100;50.994;4.538;2023-02-28T06:40:31;-0.70;99.90
15991;DHT22;8100;50.994;4.538;2023-02-28T06:43:22;-0.70;99.90
15991;DHT22;8100;50.994;4.538;2023-02-28T06:46:12;-0.70;99.90
15991;DHT22;8100;50.994;4.538;2023-02-28T06:49:02;-0.60;99.90
15991;DHT22;8100;50.994;4.538;2023-02-28T06:51:49;-0.60;99.90
15991;DHT22;8100;50.994;4.538;2023-02-28T06:54:37;-0.60;99.90
15991;DHT22;8100;50.994;4.538;2023-02-28T06:57:24;-0.50;99.90
15991;DHT22;8100;50.994;4.538;2023-02-28T07:00:12;-0.40;99.90
15991;DHT22;8100;50.994;4.538;2023-02-28T07:03:00;-0.30;99.90
15991;DHT22;8100;50.994;4.538;2023-02-28T07:05:48;-0.20;99.90
15991;DHT22;8100;50.994;4.538;2023-02-28T07:08:36;-0.20;99.90
15991;DHT22;8100;50.994;4.538;2023-02-28T07:11:27;-0.20;99.90
15991;DHT22;8100;50.994;4.538;2023-02-28T07:14:14;-0.20;99.90
15991;DHT22;8100;50.994;4.538;2023-02-28T07:17:02;-0.10;99.90
15991;DHT22;8100;50.994;4.538;2023-02-28T07:19:49;0.00;99.90
15991;DHT22;8100;50.994;4.538;2023-02-28T07:22:38;0.10;99.90
15991;DHT22;8100;50.994;4.538;2023-02-28T07:25:27;0.30;99.90
15991;DHT22;8100;50.994;4.538;2023-02-28T07:28:15;0.30;99.90
15991;DHT22;8100;50.994;4.538;2023-02-28T07:31:06;0.20;99.90
15991;DHT22;8100;50.994;4.538;2023-02-28T07:33:53;0.30;99.90
15991;DHT22;8100;50.994;4.538;2023-02-28T07:36:42;0.30;99.90
15991;DHT22;8100;50.994;4.538;2023-02-28T07:39:30;0.40;99.90
15991;DHT22;8100;50.994;4.538;2023-02-28T07:42:18;0.40;99.90
15991;DHT22;8100;50.994;4.538;2023-02-28T07:45:06;0.50;99.90
15991;DHT22;8100;50.994;4.538;2023-02-28T07:47:54;0.40;99.90
15991;DHT22;8100;50.994;4.538;2023-02-28T07:50:42;0.50;99.90
15991;DHT22;8100;50.994;4.538;2023-02-28T07:53:29;0.70;99.90
15991;DHT22;8100;50.994;4.538;2023-02-28T07:56:18;0.90;99.90
15991;DHT22;8100;50.994;4.538;2023-02-28T07:59:05;1.10;99.90
15991;DHT22;8100;50.994;4.538;2023-02-28T08:01:52;1.30;99.90
15991;DHT22;8100;50.994;4.538;2023-02-28T08:04:39;1.40;99.90
15991;DHT22;8100;50.994;4.538;2023-02-28T08:07:27;1.60;99.90
15991;DHT22;8100;50.994;4.538;2023-02-28T08:10:14;1.90;99.90
15991;DHT22;8100;50.994;4.538;2023-02-28T08:13:03;2.10;99.90
15991;DHT22;8100;50.994;4.538;2023-02-28T08:15:50;2.30;99.90
15991;DHT22;8100;50.994;4.538;2023-02-28T08:18:38;2.60;99.90
15991;DHT22;8100;50.994;4.538;2023-02-28T08:21:25;2.60;99.90
15991;DHT22;8100;50.994;4.538;2023-02-28T08:24:12;2.70;99.90
15991;DHT22;8100;50.994;4.538;2023-02-28T08:26:59;2.70;99.90
15991;DHT22;8100;50.994;4.538;2023-02-28T08:29:48;2.60;99.90
15991;DHT22;8100;50.994;4.538;2023-02-28T08:32:35;2.70;99.90
15991;DHT22;8100;50.994;4.538;2023-02-28T08:35:23;2.60;99.90
15991;DHT22;8100;50.994;4.538;2023-02-28T08:38:10;2.70;99.90
15991;DHT22;8100;50.994;4.538;2023-02-28T08:40:58;2.60;99.90
15991;DHT22;8100;50.994;4.538;2023-02-28T08:43:46;2.70;99.90
15991;DHT22;8100;50.994;4.538;2023-02-28T08:46:34;2.60;99.90
15991;DHT22;8100;50.994;4.538;2023-02-28T08:49:21;2.70;99.90
15991;DHT22;8100;50.994;4.538;2023-02-28T08:52:09;2.70;99.90
15991;DHT22;8100;50.994;4.538;2023-02-28T08:54:56;2.80;99.90
15991;DHT22;8100;50.994;4.538;2023-02-28T08:57:43;2.80;99.90
15991;DHT22;8100;50.994;4.538;2023-02-28T09:00:30;2.70;99.90
15991;DHT22;8100;50.994;4.538;2023-02-28T09:03:19;2.50;99.90
15991;DHT22;8100;50.994;4.538;2023-02-28T09:06:07;2.50;99.90
15991;DHT22;8100;50.994;4.538;2023-02-28T09:08:56;2.60;99.90
15991;DHT22;8100;50.994;4.538;2023-02-28T09:11:45;2.80;99.90
15991;DHT22;8100;50.994;4.538;2023-02-28T09:14:32;3.00;99.90
15991;DHT22;8100;50.994;4.538;2023-02-28T09:17:20;3.10;99.90
15991;DHT22;8100;50.994;4.538;2023-02-28T09:20:10;3.10;99.90
15991;DHT22;8100;50.994;4.538;2023-02-28T09:22:57;3.00;99.90
15991;DHT22;8100;50.994;4.538;2023-02-28T09:25:46;3.10;99.90
15991;DHT22;8100;50.994;4.538;2023-02-28T09:28:34;3.20;99.90
15991;DHT22;8100;50.994;4.538;2023-02-28T09:31:23;3.20;99.90
15991;DHT22;8100;50.994;4.538;2023-02-28T09:34:11;3.20;99.90
15991;DHT22;8100;50.994;4.538;2023-02-28T09:36:59;3.30;99.90
15991;DHT22;8100;50.994;4.538;2023-02-28T09:39:46;3.30;99.90
15991;DHT22;8100;50.994;4.538;2023-02-28T09:42:34;3.40;99.90
15991;DHT22;8100;50.994;4.538;2023-02-28T09:45:24;3.40;99.90
15991;DHT22;8100;50.994;4.538;2023-02-28T09:48:17;3.50;99.90
15991;DHT22;8100;50.994;4.538;2023-02-28T09:51:14;3.40;99.90
15991;DHT22;8100;50.994;4.538;2023-02-28T09:54:04;3.40;99.90
15991;DHT22;8100;50.994;4.538;2023-02-28T09:56:54;3.50;99.90
15991;DHT22;8100;50.994;4.538;2023-02-28T09:59:50;3.50;99.90
15991;DHT22;8100;50.994;4.538;2023-02-28T10:02:50;3.50;99.90
15991;DHT22;8100;50.994;4.538;2023-02-28T10:05:43;3.60;99.90
15991;DHT22;8100;50.994;4.538;2023-02-28T10:08:35;3.70;99.90
15991;DHT22;8100;50.994;4.538;2023-02-28T10:11:32;3.80;99.90
15991;DHT22;8100;50.994;4.538;2023-02-28T10:14:22;3.80;99.90
15991;DHT22;8100;50.994;4.538;2023-02-28T10:17:12;3.70;99.90
15991;DHT22;8100;50.994;4.538;2023-02-28T10:20:02;3.70;99.90
15991;DHT22;8100;50.994;4.538;2023-02-28T10:22:58;3.70;99.90
15991;DHT22;8100;50.994;4.538;2023-02-28T10:25:50;3.80;99.90
15991;DHT22;8100;50.994;4.538;2023-02-28T10:28:41;3.90;99.90
15991;DHT22;8100;50.994;4.538;2023-02-28T10:31:29;4.00;99.90
15991;DHT22;8100;50.994;4.538;2023-02-28T10:34:16;4.00;99.90
15991;DHT22;8100;50.994;4.538;2023-02-28T10:37:04;4.00;99.90
15991;DHT22;8100;50.994;4.538;2023-02-28T10:39:54;4.00;99.90
15991;DHT22;8100;50.994;4.538;2023-02-28T10:42:42;4.00;99.90
15991;DHT22;8100;50.994;4.538;2023-02-28T10:45:31;4.20;99.90
15991;DHT22;8100;50.994;4.538;2023-02-28T10:48:29;4.30;99.90
15991;DHT22;8100;50.994;4.538;2023-02-28T10:51:19;4.60;99.90
15991;DHT22;8100;50.994;4.538;2023-02-28T10:54:15;4.90;99.90
15991;DHT22;8100;50.994;4.538;2023-02-28T10:57:16;4.90;99.90
15991;DHT22;8100;50.994;4.538;2023-02-28T11:00:14;5.00;99.90
15991;DHT22;8100;50.994;4.538;2023-02-28T11:03:23;5.20;99.90
15991;DHT22;8100;50.994;4.538;2023-02-28T11:06:16;5.40;99.90
15991;DHT22;8100;50.994;4.538;2023-02-28T11:09:12;5.30;99.90
15991;DHT22;8100;50.994;4.538;2023-02-28T11:12:05;5.10;99.90
15991;DHT22;8100;50.994;4.538;2023-02-28T11:14:55;4.80;99.90
15991;DHT22;8100;50.994;4.538;2023-02-28T11:17:43;4.80;99.90
15991;DHT22;8100;50.994;4.538;2023-02-28T11:20:33;4.50;99.90
15991;DHT22;8100;50.994;4.538;2023-02-28T11:23:21;4.50;99.90
15991;DHT22;8100;50.994;4.538;2023-02-28T11:26:10;4.50;99.90
15991;DHT22;8100;50.994;4.538;2023-02-28T11:29:10;4.50;99.90
15991;DHT22;8100;50.994;4.538;2023-02-28T11:32:04;4.60;99.90
15991;DHT22;8100;50.994;4.538;2023-02-28T11:35:01;4.60;99.90
15991;DHT22;8100;50.994;4.538;2023-02-28T11:37:51;4.70;99.90
15991;DHT22;8100;50.994;4.538;2023-02-28T11:40:46;4.70;99.90
15991;DHT22;8100;50.994;4.538;2023-02-28T11:43:42;4.70;99.90
15991;DHT22;8100;50.994;4.538;2023-02-28T11:46:37;4.60;99.90
15991;DHT22;8100;50.994;4.538;2023-02-28T11:49:32;4.50;99.90
15991;DHT22;8100;50.994;4.538;2023-02-28T11:52:29;4.50;99.90
15991;DHT22;8100;50.994;4.538;2023-02-28T11:55:24;4.70;99.90
15991;DHT22;8100;50.994;4.538;2023-02-28T11:58:29;4.60;99.90
15991;DHT22;8100;50.994;4.538;2023-02-28T12:01:32;4.80;99.90
15991;DHT22;8100;50.994;4.538;2023-02-28T12:04:27;4.80;99.90
15991;DHT22;8100;50.994;4.538;2023-02-28T12:07:24;4.80;99.90
15991;DHT22;8100;50.994;4.538;2023-02-28T12:10:22;4.80;99.90
15991;DHT22;8100;50.994;4.538;2023-02-28T12:13:16;4.80;99.90
15991;DHT22;8100;50.994;4.538;2023-02-28T12:16:35;4.80;99.90
15991;DHT22;8100;50.994;4.538;2023-02-28T12:19:26;4.90;99.90
15991;DHT22;8100;50.994;4.538;2023-02-28T12:22:31;4.80;99.90
15991;DHT22;8100;50.994;4.538;2023-02-28T12:25:57;4.90;99.90
15991;DHT22;8100;50.994;4.538;2023-02-28T12:28:50;4.70;99.90
15991;DHT22;8100;50.994;4.538;2023-02-28T12:31:43;4.90;99.90
15991;DHT22;8100;50.994;4.538;2023-02-28T12:34:37;4.90;99.90
15991;DHT22;8100;50.994;4.538;2023-02-28T12:37:27;5.00;99.90
15991;DHT22;8100;50.994;4.538;2023-02-28T12:40:20;5.00;99.90
15991;DHT22;8100;50.994;4.538;2023-02-28T12:43:11;5.00;99.90
15991;DHT22;8100;50.994;4.538;2023-02-28T12:46:01;5.10;99.90
15991;DHT22;8100;50.994;4.538;2023-02-28T12:48:53;5.00;99.90
15991;DHT22;8100;50.994;4.538;2023-02-28T12:51:44;5.00;99.90
15991;DHT22;8100;50.994;4.538;2023-02-28T12:54:36;5.10;99.90
15991;DHT22;8100;50.994;4.538;2023-02-28T12:57:28;5.10;99.90
15991;DHT22;8100;50.994;4.538;2023-02-28T13:00:22;5.20;99.90
15991;DHT22;8100;50.994;4.538;2023-02-28T13:03:37;5.10;99.90
15991;DHT22;8100;50.994;4.538;2023-02-28T13:06:47;5.00;99.90
15991;DHT22;8100;50.994;4.538;2023-02-28T13:09:39;5.00;99.90
15991;DHT22;8100;50.994;4.538;2023-02-28T13:12:26;5.10;99.90
15991;DHT22;8100;50.994;4.538;2023-02-28T13:15:20;5.00;99.90
15991;DHT22;8100;50.994;4.538;2023-02-28T13:18:31;5.10;99.90
15991;DHT22;8100;50.994;4.538;2023-02-28T13:21:24;5.00;99.90
15991;DHT22;8100;50.994;4.538;2023-02-28T13:24:38;5.10;99.90
15991;DHT22;8100;50.994;4.538;2023-02-28T13:27:37;5.10;99.90
15991;DHT22;8100;50.994;4.538;2023-02-28T13:31:03;5.20;99.90
15991;DHT22;8100;50.994;4.538;2023-02-28T13:34:14;5.10;99.90
15991;DHT22;8100;50.994;4.538;2023-02-28T13:37:32;5.00;99.90
15991;DHT22;8100;50.994;4.538;2023-02-28T13:40:31;4.90;99.90
15991;DHT22;8100;50.994;4.538;2023-02-28T13:44:03;5.00;99.90
15991;DHT22;8100;50.994;4.538;2023-02-28T13:47:25;5.00;99.90
15991;DHT22;8100;50.994;4.538;2023-02-28T13:50:19;5.30;99.90
15991;DHT22;8100;50.994;4.538;2023-02-28T13:56:39;5.00;99.90
15991;DHT22;8100;50.994;4.538;2023-02-28T13:59:34;5.00;99.90
15991;DHT22;8100;50.994;4.538;2023-02-28T14:02:44;5.00;99.90
15991;DHT22;8100;50.994;4.538;2023-02-28T14:05:34;5.10;99.90
15991;DHT22;8100;50.994;4.538;2023-02-28T14:08:22;5.20;99.90
15991;DHT22;8100;50.994;4.538;2023-02-28T14:11:24;5.10;99.90
15991;DHT22;8100;50.994;4.538;2023-02-28T14:14:55;5.10;99.90
15991;DHT22;8100;50.994;4.538;2023-02-28T14:17:45;5.10;99.90
15991;DHT22;8100;50.994;4.538;2023-02-28T14:20:33;5.20;99.90
15991;DHT22;8100;50.994;4.538;2023-02-28T14:23:32;5.30;99.90
15991;DHT22;8100;50.994;4.538;2023-02-28T14:26:36;5.40;99.90
15991;DHT22;8100;50.994;4.538;2023-02-28T14:29:41;5.20;99.90
15991;DHT22;8100;50.994;4.538;2023-02-28T14:32:35;5.10;99.90
15991;DHT22;8100;50.994;4.538;2023-02-28T14:35:40;5.00;99.90
15991;DHT22;8100;50.994;4.538;2023-02-28T14:38:33;5.10;99.90
15991;DHT22;8100;50.994;4.538;2023-02-28T14:41:26;5.10;99.90
15991;DHT22;8100;50.994;4.538;2023-02-28T14:44:18;5.20;99.90
15991;DHT22;8100;50.994;4.538;2023-02-28T14:47:14;5.20;99.90
15991;DHT22;8100;50.994;4.538;2023-02-28T14:50:04;5.20;99.90
15991;DHT22;8100;50.994;4.538;2023-02-28T14:52:53;5.30;99.90
15991;DHT22;8100;50.994;4.538;2023-02-28T14:55:44;5.20;99.90
15991;DHT22;8100;50.994;4.538;2023-02-28T14:58:33;5.30;99.90
15991;DHT22;8100;50.994;4.538;2023-02-28T15:01:21;6.90;99.90
15991;DHT22;8100;50.994;4.538;2023-02-28T15:04:20;8.20;99.90
15991;DHT22;8100;50.994;4.538;2023-02-28T15:07:14;9.20;99.90
15991;DHT22;8100;50.994;4.538;2023-02-28T15:10:16;9.00;99.90
15991;DHT22;8100;50.994;4.538;2023-02-28T15:13:07;9.00;99.90
15991;DHT22;8100;50.994;4.538;2023-02-28T15:15:56;8.90;99.90
15991;DHT22;8100;50.994;4.538;2023-02-28T15:18:47;9.10;99.90
15991;DHT22;8100;50.994;4.538;2023-02-28T15:21:37;8.50;99.90
15991;DHT22;8100;50.994;4.538;2023-02-28T15:24:33;8.40;99.90
15991;DHT22;8100;50.994;4.538;2023-02-28T15:27:23;8.20;99.90
15991;DHT22;8100;50.994;4.538;2023-02-28T15:30:16;8.20;99.90
15991;DHT22;8100;50.994;4.538;2023-02-28T15:33:07;8.10;99.90
15991;DHT22;8100;50.994;4.538;2023-02-28T15:36:06;7.50;99.90
15991;DHT22;8100;50.994;4.538;2023-02-28T15:38:55;7.20;99.90
15991;DHT22;8100;50.994;4.538;2023-02-28T15:41:43;8.20;99.90
15991;DHT22;8100;50.994;4.538;2023-02-28T15:44:34;9.00;99.90
15991;DHT22;8100;50.994;4.538;2023-02-28T15:47:23;9.70;99.90
15991;DHT22;8100;50.994;4.538;2023-02-28T15:50:13;9.80;99.90
15991;DHT22;8100;50.994;4.538;2023-02-28T15:53:01;10.00;99.90
15991;DHT22;8100;50.994;4.538;2023-02-28T15:55:55;10.20;99.90
15991;DHT22;8100;50.994;4.538;2023-02-28T15:58:45;9.50;99.90
15991;DHT22;8100;50.994;4.538;2023-02-28T16:01:34;9.30;99.90
15991;DHT22;8100;50.994;4.538;2023-02-28T16:04:21;9.00;99.90
15991;DHT22;8100;50.994;4.538;2023-02-28T16:07:12;8.80;99.90
15991;DHT22;8100;50.994;4.538;2023-02-28T16:10:01;8.60;99.90
15991;DHT22;8100;50.994;4.538;2023-02-28T16:12:48;8.60;99.90
15991;DHT22;8100;50.994;4.538;2023-02-28T16:15:39;8.60;99.90
15991;DHT22;8100;50.994;4.538;2023-02-28T16:18:29;8.20;99.90
15991;DHT22;8100;50.994;4.538;2023-02-28T16:21:16;8.60;99.90
15991;DHT22;8100;50.994;4.538;2023-02-28T16:24:03;8.30;99.90
15991;DHT22;8100;50.994;4.538;2023-02-28T16:26:53;8.00;99.90
15991;DHT22;8100;50.994;4.538;2023-02-28T16:29:40;8.00;99.90
15991;DHT22;8100;50.994;4.538;2023-02-28T16:32:30;7.30;99.90
15991;DHT22;8100;50.994;4.538;2023-02-28T16:35:18;6.50;99.90
15991;DHT22;8100;50.994;4.538;2023-02-28T16:38:05;6.00;99.90
15991;DHT22;8100;50.994;4.538;2023-02-28T16:40:55;5.70;99.90
15991;DHT22;8100;50.994;4.538;2023-02-28T16:43:45;5.40;99.90
15991;DHT22;8100;50.994;4.538;2023-02-28T16:46:34;5.00;99.90
15991;DHT22;8100;50.994;4.538;2023-02-28T16:49:22;4.80;99.90
15991;DHT22;8100;50.994;4.538;2023-02-28T16:52:10;4.60;99.90
15991;DHT22;8100;50.994;4.538;2023-02-28T16:54:57;4.60;99.90
15991;DHT22;8100;50.994;4.538;2023-02-28T16:57:49;4.60;99.90
15991;DHT22;8100;50.994;4.538;2023-02-28T17:00:37;4.60;99.90
15991;DHT22;8100;50.994;4.538;2023-02-28T17:03:26;4.30;99.90
15991;DHT22;8100;50.994;4.538;2023-02-28T17:06:21;4.10;99.90
15991;DHT22;8100;50.994;4.538;2023-02-28T17:09:16;3.90;99.90
15991;DHT22;8100;50.994;4.538;2023-02-28T17:12:04;3.70;99.90
15991;DHT22;8100;50.994;4.538;2023-02-28T17:14:51;3.70;99.90
15991;DHT22;8100;50.994;4.538;2023-02-28T17:17:38;3.60;99.90
15991;DHT22;8100;50.994;4.538;2023-02-28T17:20:26;3.50;99.90
15991;DHT22;8100;50.994;4.538;2023-02-28T17:23:14;3.40;99.90
15991;DHT22;8100;50.994;4.538;2023-02-28T17:26:02;3.30;99.90
15991;DHT22;8100;50.994;4.538;2023-02-28T17:28:53;3.20;99.90
15991;DHT22;8100;50.994;4.538;2023-02-28T17:31:41;3.10;99.90
15991;DHT22;8100;50.994;4.538;2023-02-28T17:34:28;3.00;99.90
15991;DHT22;8100;50.994;4.538;2023-02-28T17:37:15;2.90;99.90
15991;DHT22;8100;50.994;4.538;2023-02-28T17:40:05;2.90;99.90
15991;DHT22;8100;50.994;4.538;2023-02-28T17:42:53;2.80;99.90
15991;DHT22;8100;50.994;4.538;2023-02-28T17:45:42;2.70;99.90
15991;DHT22;8100;50.994;4.538;2023-02-28T17:48:29;2.50;99.90
15991;DHT22;8100;50.994;4.538;2023-02-28T17:51:18;2.40;99.90
15991;DHT22;8100;50.994;4.538;2023-02-28T17:54:06;2.30;99.90
15991;DHT22;8100;50.994;4.538;2023-02-28T17:56:54;2.10;99.90
15991;DHT22;8100;50.994;4.538;2023-02-28T17:59:42;2.00;99.90
15991;DHT22;8100;50.994;4.538;2023-02-28T18:02:29;2.00;99.90
15991;DHT22;8100;50.994;4.538;2023-02-28T18:05:16;1.90;99.90
15991;DHT22;8100;50.994;4.538;2023-02-28T18:08:04;1.80;99.90
15991;DHT22;8100;50.994;4.538;2023-02-28T18:10:51;1.70;99.90
15991;DHT22;8100;50.994;4.538;2023-02-28T18:13:39;1.60;99.90
15991;DHT22;8100;50.994;4.538;2023-02-28T18:16:27;1.50;99.90
15991;DHT22;8100;50.994;4.538;2023-02-28T18:19:14;1.50;99.90
15991;DHT22;8100;50.994;4.538;2023-02-28T18:22:02;1.40;99.90
15991;DHT22;8100;50.994;4.538;2023-02-28T18:24:50;1.30;99.90
15991;DHT22;8100;50.994;4.538;2023-02-28T18:27:38;1.30;99.90
15991;DHT22;8100;50.994;4.538;2023-02-28T18:30:28;1.30;99.90
15991;DHT22;8100;50.994;4.538;2023-02-28T18:33:16;1.10;99.90
15991;DHT22;8100;50.994;4.538;2023-02-28T18:36:04;1.00;99.90
15991;DHT22;8100;50.994;4.538;2023-02-28T18:38:52;1.00;99.90
15991;DHT22;8100;50.994;4.538;2023-02-28T18:41:40;1.00;99.90